Airfield :
LOGIN :

Register | Disclaimer

   EN    FR    IT 

 










Legend :    VFR   Marginal VFR   IFR   Intensive IFR   Very Intensive IFR
Visi :
Ceiling :
>= 8 km
>= 3000ft
5 to 8 km
1000 to 3000 ft
1500m to 5 km
500 to 1000 ft
800 to 1500m
200 to 500 ft
< 800m
< 200 ft
Symbols :   Thunderstorms  Fog  Heavy snow  Heavy precipitations  Wind > 20 kt
SIGMETs :     Misc.  Thunderstorms  Icing  Turbulence  Mountain Waves  Volcanic Ashes







- Airport Elevation : 135 ft
- IATA code : EDI
- Download approach charts


EGPH - Edinburgh

CURRENT METAR :
  • 162120Z 22009KT 9999 BKN020 10/07 Q1011

EXPIRED METARs :
  • 162050Z 23009KT 9999 BKN021 10/06 Q1011
  • 162020Z 21007KT 9999 SCT026 09/05 Q1011
  • 161950Z 22008KT 9999 SCT030 09/05 Q1011
  • 161920Z 20008KT 160V230 9999 SCT039 09/05 Q1012
  • 161850Z 20010KT 9999 BKN039 09/05 Q1012

TAF TAF EGPH
Valid from the 16 at 18:00 until the 17 at 18:00 UTC


161655Z 1618/1718 20012KT 9999 SCT035
TEMPO 1621/1706 BKN012
PROB40
TEMPO 1622/1704 19015G25KT
TEMPO 1710/1718 20018G28KT
PROB30
TEMPO 1712/1716 8000 -RA
ATIS : +44 131 339 2823
No reported NOTAMs for that airfield.



MET'MAP, your aeronautical weather chart ! - Copyright ORBIFLY December 2007 - Disclaimer

ORBIFLY MET'MAP TEAM :

Programming & Development : Alexandra Zaïnal
Concept & Development : Baudouin d'Aumeries
Co-Development & Prog : Marc-Olivier Méhu
Technical & hardware support : Manuel Goepfert

Contact : metmap@orbifly.com




SOURCES & CREDITS :

   NOAA